EPSYEPPO

Guest
Details From EPSY - SZYMANY
To EPPO - LAWICA
Flight Number -
Tags generated
Created
Modified
Stats Distance 163 nm / 301 km
Max Altitude 20,000 ft / 6,096 m
Waypoints 3
Social Downloads 1
Likes 0
Share VATSIM

Download

Looking for another format? Having issues loading an existing format? Contact us
Advertisement - Login to hide

Notes

Basic altitude profile: - Ascent Rate: 2500ft/min - Ascent Speed: 250kts - Cruise Altitude: 35000ft - Cruise Speed: 420kts - Descent Rate: 1500ft/min - Descent Speed: 250kts Options: - Use NATs: yes - Use PACOTS: yes - Use low airways: yes - Use high airways: yes

Route

EPSY SOMOR EPPO

ID Type Via Altitude Latitude Longitude Leg Dist Tot Dist Heading (true) Name
O EPSY APT - 0 ft / 0 m 53.47973˚ 20.93650˚ - 0 nm - SZYMANY
SOMOR FIX - 20,000 ft / 6,096 m 53.22694˚ 19.35028˚ 58 nm 58 nm 256° / 254° -
O EPPO APT - 0 ft / 0 m 52.42157˚ 16.82355˚ 103 nm 162 nm 243° / 241° LAWICA

Altitude Profile

Advertisement - Login to hide

Weather


0- 5 10 15 20 25 30 35+ Temperature / ° C

Clouds and Precipitation
Forecast for 2017-12-12 12:00 UTC. Updated an hour ago

Ground ~20,000 ft ~40,000 ft Winds

EPSY

Details ICAO EPSY
Name SZYMANY
Region Poland
Timezone Europe/Warsaw (UTC+1.0)
Stats Elevation 463 ft / 141 m (AMSL)
Location 53.479731° 20.936497°
Runways 1
Magnetic Variation 6.015° E

METAR

EPSY 120800Z 18010KT 9999 BKN030 08/05 Q0993

Decode

TAF

Not found

Departure Runways

ID Width Length Bearing (true) Bearing (mag) Surface Threshold Offset Overrun Length
02 197 ft / 60 m 6,556 ft / 1,998 m 18.43° 12.42° Concrete 0 ft / 0 m 0 ft / 0 m
20 197 ft / 60 m 6,556 ft / 1,998 m 198.43° 192.42° Concrete 0 ft / 0 m 0 ft / 0 m

EPPO

Details ICAO EPPO (POZ)
Name LAWICA
Region Poland
Timezone Europe/Warsaw (UTC+1.0)
Stats Elevation 308 ft / 94 m (AMSL)
Location 52.421566° 16.823549°
Runways 1
Magnetic Variation 4.734° E

METAR

EPPO 120800Z 21012KT CAVOK 07/04 Q0994 R10/290095

Decode

TAF

TAF EPPO 120530Z 1206/1306 22008KT 9999 BKN030 TEMPO 1206/1218 24020G40KT TEMPO 1218/1303 24015G25KT

Decode

Destination Runways

ID Width Length Bearing (true) Bearing (mag) Surface Threshold Offset Overrun Length
11 164 ft / 50 m 8,153 ft / 2,485 m 107.57° 102.84° Asphalt 0 ft / 0 m 0 ft / 0 m
29 164 ft / 50 m 8,153 ft / 2,485 m 287.59° 282.86° Asphalt 0 ft / 0 m 0 ft / 0 m

Approach Navaids

Runway Type Ident Frequency Range Bearing (true) Bearing (mag) Slope Elevation
29 Localiser POZ 110.30 MHz 18 nm / 33 km 287.57° 282.83° - 308 ft / 94 m (AMSL)
29 Glidescope POZ 110.30 MHz 10 nm / 19 km 287.58° 282.85° 3.00° 308 ft / 94 m (AMSL)
29 DME POZ 110.30 MHz 18 nm / 33 km - - - 331 ft / 101 m (AMSL)